createdAt,value
2023-01-18T00:00:34.341Z,-0.06
2023-01-18T00:03:01.068Z,-0.12
2023-01-18T00:05:27.749Z,-0.11
2023-01-18T00:07:54.435Z,-0.10
2023-01-18T00:10:22.531Z,-0.18
2023-01-18T00:12:49.574Z,-0.19
2023-01-18T00:15:16.438Z,-0.23
2023-01-18T00:17:51.887Z,-0.27
2023-01-18T00:20:23.556Z,-0.24
2023-01-18T00:22:50.706Z,-0.24
2023-01-18T00:25:18.002Z,-0.24
2023-01-18T00:27:46.545Z,-0.23
2023-01-18T00:30:13.461Z,-0.23
2023-01-18T00:32:40.087Z,-0.21
2023-01-18T00:35:08.190Z,-0.20
2023-01-18T00:37:35.314Z,-0.20
2023-01-18T00:40:02.485Z,-0.20
2023-01-18T00:42:47.448Z,-0.23
2023-01-18T00:45:14.152Z,-0.21
2023-01-18T00:47:41.011Z,-0.17
2023-01-18T00:50:07.967Z,-0.15
2023-01-18T00:52:35.016Z,-0.24
2023-01-18T00:55:02.373Z,-0.30
2023-01-18T00:57:29.091Z,-0.27
2023-01-18T00:59:55.762Z,-0.24
2023-01-18T01:02:22.287Z,-0.27
2023-01-18T01:05:07.672Z,-0.28
2023-01-18T01:07:34.188Z,-0.23
2023-01-18T01:10:00.774Z,-0.27
2023-01-18T01:12:46.115Z,-0.28
2023-01-18T01:15:31.140Z,-0.20
2023-01-18T01:18:16.237Z,-0.28
2023-01-18T01:21:01.113Z,-0.31
2023-01-18T01:23:46.510Z,-0.18
2023-01-18T01:26:13.275Z,-0.23
2023-01-18T01:28:41.161Z,-0.25
2023-01-18T01:31:08.781Z,-0.20
2023-01-18T01:33:35.936Z,-0.17
2023-01-18T01:36:05.077Z,-0.18
2023-01-18T01:38:32.099Z,-0.28
2023-01-18T01:41:03.252Z,-0.28
2023-01-18T01:43:50.085Z,-0.31
2023-01-18T01:46:25.990Z,-0.28
2023-01-18T01:49:00.108Z,-0.27
2023-01-18T01:51:26.844Z,-0.30
2023-01-18T01:53:53.591Z,-0.32
2023-01-18T01:59:50.901Z,-0.29
2023-01-18T02:02:17.483Z,-0.28
2023-01-18T02:04:45.417Z,-0.23
2023-01-18T02:07:12.554Z,-0.22
2023-01-18T02:09:40.751Z,-0.21
2023-01-18T02:12:07.281Z,-0.20
2023-01-18T02:14:33.821Z,-0.17
2023-01-18T02:17:28.482Z,-0.16
2023-01-18T02:20:19.585Z,-0.16
2023-01-18T02:23:11.847Z,-0.12
2023-01-18T02:25:50.314Z,-0.07
2023-01-18T02:28:19.252Z,-0.05
2023-01-18T02:30:45.739Z,-0.09
2023-01-18T02:33:37.160Z,-0.11
2023-01-18T02:36:07.221Z,-0.13
2023-01-18T02:38:36.724Z,-0.15
2023-01-18T02:41:03.243Z,-0.17
2023-01-18T02:43:48.384Z,-0.09
2023-01-18T02:46:32.565Z,-0.12
2023-01-18T02:49:01.201Z,-0.20
2023-01-18T02:51:27.688Z,-0.17
2023-01-18T02:53:54.200Z,-0.14
2023-01-18T02:56:26.838Z,-0.06
2023-01-18T02:59:19.479Z,-0.08
2023-01-18T03:02:05.793Z,-0.16
2023-01-18T03:04:49.407Z,-0.11
2023-01-18T03:07:21.567Z,-0.09
2023-01-18T03:09:48.526Z,-0.11
2023-01-18T03:12:15.443Z,-0.17
2023-01-18T03:14:49.403Z,-0.20
2023-01-18T03:17:32.689Z,-0.19
2023-01-18T03:20:03.951Z,-0.21
2023-01-18T03:22:54.011Z,-0.21
2023-01-18T03:25:22.594Z,-0.13
2023-01-18T03:28:10.178Z,-0.15
2023-01-18T03:30:55.612Z,-0.15
2023-01-18T03:33:44.167Z,-0.16
2023-01-18T03:36:13.588Z,-0.26
2023-01-18T03:38:44.284Z,-0.32
2023-01-18T03:41:12.692Z,-0.28
2023-01-18T03:43:40.631Z,-0.31
2023-01-18T03:46:22.285Z,-0.36
2023-01-18T03:48:48.987Z,-0.36
2023-01-18T03:51:21.659Z,-0.29
2023-01-18T03:54:15.727Z,-0.25
2023-01-18T03:56:57.732Z,-0.16
2023-01-18T03:59:27.464Z,-0.24
2023-01-18T04:01:54.090Z,-0.31
2023-01-18T04:04:20.693Z,-0.40
2023-01-18T04:06:48.682Z,-0.39
2023-01-18T04:09:19.653Z,-0.32
2023-01-18T04:11:46.141Z,-0.30
2023-01-18T04:14:12.679Z,-0.29
2023-01-18T04:16:39.194Z,-0.32
2023-01-18T04:19:07.454Z,-0.33
2023-01-18T04:21:34.071Z,-0.27
2023-01-18T04:24:00.767Z,-0.27
2023-01-18T04:26:27.413Z,-0.20
2023-01-18T04:28:56.454Z,-0.21
2023-01-18T04:31:23.118Z,-0.28
2023-01-18T04:33:54.994Z,-0.32
2023-01-18T04:36:22.422Z,-0.30
2023-01-18T04:38:55.283Z,-0.20
2023-01-18T04:41:22.383Z,-0.26
2023-01-18T04:43:49.181Z,-0.33
2023-01-18T04:46:16.062Z,-0.37
2023-01-18T04:48:45.312Z,-0.36
2023-01-18T04:51:16.077Z,-0.34
2023-01-18T04:53:43.932Z,-0.30
2023-01-18T04:56:12.843Z,-0.32
2023-01-18T04:58:41.484Z,-0.33
2023-01-18T05:01:09.190Z,-0.32
2023-01-18T05:03:40.585Z,-0.29
2023-01-18T05:06:08.527Z,-0.30
2023-01-18T05:08:35.218Z,-0.24
2023-01-18T05:11:11.170Z,-0.20
2023-01-18T05:13:40.115Z,-0.14
2023-01-18T05:16:07.429Z,-0.11
2023-01-18T05:18:34.096Z,-0.15
2023-01-18T05:21:02.478Z,-0.30
2023-01-18T05:23:29.204Z,-0.43
2023-01-18T05:25:59.781Z,-0.43
2023-01-18T05:28:27.424Z,-0.34
2023-01-18T05:30:55.654Z,-0.28
2023-01-18T05:33:22.754Z,-0.27
2023-01-18T05:35:50.372Z,-0.31
2023-01-18T05:38:17.114Z,-0.36
2023-01-18T05:40:53.600Z,-0.42
2023-01-18T05:43:25.501Z,-0.40
2023-01-18T05:45:52.208Z,-0.40
2023-01-18T05:48:18.826Z,-0.40
2023-01-18T05:50:47.146Z,-0.30
2023-01-18T05:53:14.600Z,-0.37
2023-01-18T05:55:42.467Z,-0.36
2023-01-18T05:58:11.569Z,-0.30
2023-01-18T06:00:38.102Z,-0.30
2023-01-18T06:03:04.603Z,-0.34
2023-01-18T06:05:31.163Z,-0.34
2023-01-18T06:07:57.675Z,-0.32
2023-01-18T06:10:24.120Z,-0.33
2023-01-18T06:12:50.726Z,-0.23
2023-01-18T06:15:17.329Z,-0.23
2023-01-18T06:17:44.841Z,-0.20
2023-01-18T06:20:12.669Z,-0.23
2023-01-18T06:22:43.020Z,-0.29
2023-01-18T06:25:10.158Z,-0.35
2023-01-18T06:27:37.773Z,-0.35
2023-01-18T06:30:06.314Z,-0.36
2023-01-18T06:32:33.082Z,-0.38
2023-01-18T06:35:01.050Z,-0.37
2023-01-18T06:37:28.736Z,-0.31
2023-01-18T06:39:58.285Z,-0.27
2023-01-18T06:42:24.851Z,-0.30
2023-01-18T06:44:51.409Z,-0.28
2023-01-18T06:47:20.002Z,-0.24
2023-01-18T06:49:48.040Z,-0.27
2023-01-18T06:52:15.067Z,-0.34
2023-01-18T06:54:44.547Z,-0.37
2023-01-18T06:57:12.258Z,-0.38
2023-01-18T06:59:39.152Z,-0.43
2023-01-18T07:02:06.159Z,-0.44
2023-01-18T07:04:35.491Z,-0.42
2023-01-18T07:07:04.791Z,-0.47
2023-01-18T07:09:35.403Z,-0.45
2023-01-18T07:12:04.343Z,-0.41
2023-01-18T07:14:32.007Z,-0.33
2023-01-18T07:16:58.618Z,-0.29
2023-01-18T07:19:28.829Z,-0.13
2023-01-18T07:21:55.368Z,-0.08
2023-01-18T07:24:25.074Z,-0.12
2023-01-18T07:26:51.598Z,-0.17
2023-01-18T07:29:25.724Z,-0.07
2023-01-18T07:31:52.282Z,0.02
2023-01-18T07:34:19.952Z,0.09
2023-01-18T07:36:49.238Z,0.08
2023-01-18T07:39:15.748Z,0.07
2023-01-18T07:41:42.389Z,0.16
2023-01-18T07:44:10.377Z,0.22
2023-01-18T07:46:36.900Z,0.29
2023-01-18T07:49:05.896Z,0.33
2023-01-18T07:51:32.989Z,0.41
2023-01-18T07:53:59.499Z,0.54
2023-01-18T07:56:26.100Z,0.55
2023-01-18T07:58:53.303Z,0.61
2023-01-18T08:01:23.205Z,0.66
2023-01-18T08:03:50.725Z,0.75
2023-01-18T08:06:21.243Z,0.81
2023-01-18T08:08:47.761Z,0.82
2023-01-18T08:11:14.323Z,0.82
2023-01-18T08:13:41.902Z,0.83
2023-01-18T08:16:11.277Z,0.81
2023-01-18T08:18:39.653Z,0.79
2023-01-18T08:21:08.299Z,0.80
2023-01-18T08:23:35.919Z,0.79
2023-01-18T08:26:04.187Z,0.80
2023-01-18T08:28:31.028Z,0.78
2023-01-18T08:31:16.699Z,0.76
2023-01-18T08:33:47.358Z,0.65
2023-01-18T08:36:16.803Z,0.53
2023-01-18T08:38:43.374Z,0.46
2023-01-18T08:41:11.048Z,0.47
2023-01-18T08:43:39.920Z,0.48
2023-01-18T08:46:06.467Z,0.49
2023-01-18T08:48:37.379Z,0.46
2023-01-18T08:51:04.160Z,0.42
2023-01-18T08:53:31.024Z,0.41
2023-01-18T08:55:57.581Z,0.41
2023-01-18T08:58:24.248Z,0.43
2023-01-18T09:00:54.523Z,0.44
2023-01-18T09:03:21.896Z,0.47
2023-01-18T09:05:49.325Z,0.46
2023-01-18T09:08:15.971Z,0.58
2023-01-18T09:10:42.457Z,0.57
2023-01-18T09:13:12.413Z,0.50
2023-01-18T09:15:41.925Z,0.45
2023-01-18T09:18:11.086Z,0.55
2023-01-18T09:20:37.655Z,0.45
2023-01-18T09:23:11.168Z,0.41
2023-01-18T09:25:37.864Z,0.34
2023-01-18T09:28:05.133Z,0.35
2023-01-18T09:30:32.363Z,0.32
2023-01-18T09:33:01.093Z,0.27
2023-01-18T09:35:27.993Z,0.28
2023-01-18T09:37:55.029Z,0.27
2023-01-18T09:40:23.912Z,0.32
2023-01-18T09:42:53.172Z,0.40
2023-01-18T09:45:26.068Z,0.41
2023-01-18T09:47:57.173Z,0.46
2023-01-18T09:50:23.924Z,0.48
2023-01-18T09:52:52.647Z,0.56
2023-01-18T09:55:25.844Z,0.56
2023-01-18T09:57:52.325Z,0.51
2023-01-18T10:00:21.795Z,0.44
2023-01-18T10:02:52.192Z,0.33
2023-01-18T10:05:21.627Z,0.37
2023-01-18T10:08:04.741Z,0.46
2023-01-18T10:10:34.224Z,0.59
2023-01-18T10:13:09.707Z,0.71
2023-01-18T10:15:36.764Z,0.79
2023-01-18T10:18:03.445Z,0.89
2023-01-18T10:20:34.028Z,0.96
2023-01-18T10:23:11.296Z,0.93
2023-01-18T10:25:41.957Z,0.85
2023-01-18T10:28:08.494Z,0.80
2023-01-18T10:30:38.113Z,0.80
2023-01-18T10:33:14.479Z,0.83
2023-01-18T10:35:45.338Z,0.91
2023-01-18T10:38:13.411Z,0.90
2023-01-18T10:40:40.819Z,0.84
2023-01-18T10:43:13.832Z,0.91
2023-01-18T10:45:40.697Z,1.04
2023-01-18T10:48:28.178Z,1.14
2023-01-18T10:50:59.651Z,1.20
2023-01-18T10:53:27.312Z,1.24
2023-01-18T10:55:55.968Z,1.27
2023-01-18T10:58:30.637Z,1.46
2023-01-18T11:01:00.103Z,1.51
2023-01-18T11:03:27.832Z,1.57
2023-01-18T11:06:00.760Z,1.61
2023-01-18T11:08:34.699Z,1.62
2023-01-18T11:11:19.568Z,1.72
2023-01-18T11:13:49.419Z,1.85
2023-01-18T11:16:23.027Z,1.90
2023-01-18T11:19:00.162Z,1.88
2023-01-18T11:21:31.631Z,1.83
2023-01-18T11:23:58.408Z,1.80
2023-01-18T11:26:28.763Z,1.89
2023-01-18T11:28:55.328Z,1.82
2023-01-18T11:31:23.375Z,1.74
2023-01-18T11:33:51.942Z,1.65
2023-01-18T11:36:20.851Z,1.64
2023-01-18T11:38:48.012Z,1.65
2023-01-18T11:41:15.337Z,1.82
2023-01-18T11:44:05.257Z,1.88
2023-01-18T11:46:39.100Z,1.99
2023-01-18T11:49:31.842Z,1.96
2023-01-18T11:51:58.432Z,1.95
2023-01-18T11:54:28.449Z,1.99
2023-01-18T11:56:58.525Z,2.00
2023-01-18T11:59:27.757Z,2.01
2023-01-18T12:01:57.441Z,1.98
2023-01-18T12:04:39.409Z,1.95
2023-01-18T12:07:19.040Z,1.95
2023-01-18T12:09:56.006Z,1.96
2023-01-18T12:12:25.793Z,1.93
2023-01-18T12:15:01.337Z,1.97
2023-01-18T12:17:31.019Z,2.12
2023-01-18T12:20:03.915Z,2.07
2023-01-18T12:22:36.530Z,2.00
2023-01-18T12:25:21.887Z,2.02
2023-01-18T12:28:00.691Z,2.01
2023-01-18T12:30:30.083Z,1.98
2023-01-18T12:33:02.349Z,1.98
2023-01-18T12:35:44.557Z,2.04
2023-01-18T12:38:14.007Z,2.08
2023-01-18T12:40:59.404Z,2.11
2023-01-18T12:43:28.256Z,2.17
2023-01-18T12:46:03.268Z,2.16
2023-01-18T12:48:43.704Z,2.10
2023-01-18T12:51:14.002Z,2.00
2023-01-18T12:53:49.436Z,1.90
2023-01-18T12:56:22.915Z,1.90
2023-01-18T12:59:10.875Z,1.93
2023-01-18T13:01:42.980Z,1.98
2023-01-18T13:04:26.071Z,2.00
2023-01-18T13:06:57.032Z,2.08
2023-01-18T13:09:29.855Z,2.07
2023-01-18T13:11:58.549Z,2.02
2023-01-18T13:14:34.280Z,2.01
2023-01-18T13:17:08.193Z,2.02
2023-01-18T13:19:51.993Z,2.00
2023-01-18T13:22:24.260Z,1.98
2023-01-18T13:25:12.391Z,2.08
2023-01-18T13:27:40.374Z,2.13
2023-01-18T13:30:16.944Z,2.22
2023-01-18T13:32:45.474Z,2.24
2023-01-18T13:35:25.666Z,2.15
2023-01-18T13:37:57.296Z,2.05
2023-01-18T13:40:36.847Z,1.95
2023-01-18T13:43:05.832Z,1.91
2023-01-18T13:45:33.005Z,1.96
2023-01-18T13:48:01.821Z,1.94
2023-01-18T13:50:28.626Z,1.87
2023-01-18T13:53:13.764Z,1.80
2023-01-18T13:56:12.410Z,1.79
2023-01-18T13:58:40.285Z,1.72
2023-01-18T14:01:08.111Z,1.67
2023-01-18T14:03:36.511Z,1.65
2023-01-18T14:06:09.235Z,1.66
2023-01-18T14:08:37.675Z,1.64
2023-01-18T14:11:25.184Z,1.60
2023-01-18T14:13:56.781Z,1.59
2023-01-18T14:16:29.283Z,1.59
2023-01-18T14:19:03.253Z,1.59
2023-01-18T14:21:37.716Z,1.61
2023-01-18T14:24:14.809Z,1.62
2023-01-18T14:26:46.464Z,1.80
2023-01-18T14:29:22.167Z,1.75
2023-01-18T14:31:53.743Z,1.65
2023-01-18T14:34:30.159Z,1.60
2023-01-18T14:36:57.567Z,1.56
2023-01-18T14:39:24.277Z,1.55
2023-01-18T14:41:52.744Z,1.54
2023-01-18T14:44:19.303Z,1.56
2023-01-18T14:47:13.815Z,1.54
2023-01-18T14:49:51.935Z,1.51
2023-01-18T14:52:18.690Z,1.49
2023-01-18T14:54:54.453Z,1.46
2023-01-18T14:57:22.253Z,1.39
2023-01-18T14:59:53.017Z,1.39
2023-01-18T15:02:22.754Z,1.42
2023-01-18T15:04:49.693Z,1.43
2023-01-18T15:07:27.807Z,1.34
2023-01-18T15:09:54.489Z,1.37
2023-01-18T15:12:23.574Z,1.37
2023-01-18T15:15:01.689Z,1.33
2023-01-18T15:17:28.285Z,1.36
2023-01-18T15:19:57.934Z,1.36
2023-01-18T15:22:28.415Z,1.36
2023-01-18T15:24:56.495Z,1.31
2023-01-18T15:27:27.611Z,1.21
2023-01-18T15:29:57.659Z,1.19
2023-01-18T15:32:29.057Z,1.17
2023-01-18T15:34:56.756Z,1.14
2023-01-18T15:37:30.373Z,1.14
2023-01-18T15:39:57.819Z,1.12
2023-01-18T15:42:44.833Z,1.07
2023-01-18T15:45:38.735Z,1.08
2023-01-18T15:48:27.259Z,1.09
2023-01-18T15:50:55.194Z,1.09
2023-01-18T15:53:34.378Z,1.12
2023-01-18T15:56:08.544Z,1.10
2023-01-18T15:58:36.958Z,1.07
2023-01-18T16:01:22.173Z,1.06
2023-01-18T16:03:48.796Z,1.03
2023-01-18T16:06:19.694Z,1.05
2023-01-18T16:09:11.847Z,1.02
2023-01-18T16:11:39.773Z,1.08
2023-01-18T16:14:20.280Z,1.11
2023-01-18T16:16:47.739Z,1.07
2023-01-18T16:19:32.094Z,1.05
2023-01-18T16:22:01.199Z,1.04
2023-01-18T16:24:33.762Z,1.03
2023-01-18T16:27:10.413Z,1.04
2023-01-18T16:29:52.946Z,1.10
2023-01-18T16:32:27.089Z,1.07
2023-01-18T16:34:54.634Z,1.01
2023-01-18T16:37:21.364Z,0.98
2023-01-18T16:39:50.731Z,0.96
2023-01-18T16:42:19.867Z,0.94
2023-01-18T16:44:48.635Z,0.98
2023-01-18T16:47:17.592Z,0.94
2023-01-18T16:49:45.882Z,0.93
2023-01-18T16:52:16.296Z,0.93
2023-01-18T16:54:43.900Z,0.92
2023-01-18T16:57:24.004Z,0.93
2023-01-18T16:59:50.845Z,0.94
2023-01-18T17:02:18.845Z,0.92
2023-01-18T17:04:46.713Z,0.87
2023-01-18T17:07:13.717Z,0.87
2023-01-18T17:09:48.398Z,0.86
2023-01-18T17:12:18.461Z,0.84
2023-01-18T17:14:44.995Z,0.86
2023-01-18T17:17:11.559Z,0.83
2023-01-18T17:19:38.245Z,0.83
2023-01-18T17:22:07.209Z,0.82
2023-01-18T17:24:35.855Z,0.83
2023-01-18T17:27:02.401Z,0.83
2023-01-18T17:29:31.337Z,0.83
2023-01-18T17:31:57.992Z,0.82
2023-01-18T17:34:28.418Z,0.83
2023-01-18T17:36:56.735Z,0.83
2023-01-18T17:39:28.170Z,0.80
2023-01-18T17:42:03.938Z,0.82
2023-01-18T17:44:36.819Z,0.80
2023-01-18T17:47:03.757Z,0.77
2023-01-18T17:49:32.801Z,0.76
2023-01-18T17:51:59.370Z,0.77
2023-01-18T17:54:26.056Z,0.85
2023-01-18T17:56:56.328Z,0.91
2023-01-18T17:59:22.893Z,0.95
2023-01-18T18:01:49.509Z,0.86
2023-01-18T18:04:19.196Z,0.78
2023-01-18T18:06:53.663Z,0.74
2023-01-18T18:09:20.441Z,0.70
2023-01-18T18:11:47.020Z,0.61
2023-01-18T18:14:16.641Z,0.53
2023-01-18T18:16:44.090Z,0.48
2023-01-18T18:19:14.683Z,0.45
2023-01-18T18:21:45.968Z,0.47
2023-01-18T18:24:12.983Z,0.43
2023-01-18T18:26:39.993Z,0.44
2023-01-18T18:29:06.657Z,0.41
2023-01-18T18:31:33.307Z,0.40
2023-01-18T18:34:02.052Z,0.39
2023-01-18T18:36:28.735Z,0.40
2023-01-18T18:38:55.308Z,0.39
2023-01-18T18:41:22.077Z,0.39
2023-01-18T18:43:50.001Z,0.40
2023-01-18T18:46:16.659Z,0.36
2023-01-18T18:48:43.820Z,0.29
2023-01-18T18:51:10.464Z,0.30
2023-01-18T18:53:39.450Z,0.32
2023-01-18T18:56:09.575Z,0.33
2023-01-18T18:58:41.533Z,0.35
2023-01-18T19:01:17.346Z,0.37
2023-01-18T19:03:44.013Z,0.28
2023-01-18T19:06:12.555Z,0.27
2023-01-18T19:08:39.154Z,0.26
2023-01-18T19:11:05.713Z,0.26
2023-01-18T19:13:33.397Z,0.25
2023-01-18T19:16:00.031Z,0.21
2023-01-18T19:18:26.772Z,0.23
2023-01-18T19:20:53.559Z,0.25
2023-01-18T19:23:20.885Z,0.26
2023-01-18T19:25:48.739Z,0.26
2023-01-18T19:28:18.996Z,0.23
2023-01-18T19:30:45.597Z,0.21
2023-01-18T19:33:14.854Z,0.17
2023-01-18T19:35:43.000Z,0.17
2023-01-18T19:38:09.795Z,0.21
2023-01-18T19:40:37.521Z,0.23
2023-01-18T19:43:04.197Z,0.30
2023-01-18T19:45:31.438Z,0.21
2023-01-18T19:47:59.690Z,0.22
2023-01-18T19:50:29.005Z,0.20
2023-01-18T19:52:55.725Z,0.21
2023-01-18T19:55:22.846Z,0.18
2023-01-18T19:57:51.448Z,0.21
2023-01-18T20:00:18.253Z,0.22
2023-01-18T20:02:44.950Z,0.24
2023-01-18T20:05:11.524Z,0.22
2023-01-18T20:07:39.034Z,0.22
2023-01-18T20:10:09.333Z,0.18
2023-01-18T20:12:35.927Z,0.17
2023-01-18T20:15:02.553Z,0.17
2023-01-18T20:17:29.962Z,0.21
2023-01-18T20:19:59.079Z,0.19
2023-01-18T20:22:25.600Z,0.19
2023-01-18T20:24:52.130Z,0.20
2023-01-18T20:27:18.811Z,0.19
2023-01-18T20:29:45.365Z,0.16
2023-01-18T20:32:17.058Z,0.17
2023-01-18T20:34:47.278Z,0.17
2023-01-18T20:37:14.963Z,0.18
2023-01-18T20:39:41.773Z,0.18
2023-01-18T20:42:08.427Z,0.24
2023-01-18T20:44:35.059Z,0.32
2023-01-18T20:47:01.798Z,0.27
2023-01-18T20:49:43.449Z,0.22
2023-01-18T20:52:10.043Z,0.19
2023-01-18T20:54:36.818Z,0.16
2023-01-18T20:57:04.074Z,0.15
2023-01-18T20:59:30.567Z,0.13
2023-01-18T21:01:57.500Z,0.12
2023-01-18T21:04:24.763Z,0.14
2023-01-18T21:06:51.295Z,0.11
2023-01-18T21:09:18.051Z,0.20
2023-01-18T21:11:44.628Z,0.17
2023-01-18T21:14:11.766Z,0.14
2023-01-18T21:16:38.312Z,0.13
2023-01-18T21:19:04.915Z,0.11
2023-01-18T21:21:31.985Z,0.08
2023-01-18T21:23:59.373Z,0.10
2023-01-18T21:26:26.256Z,0.11
2023-01-18T21:28:52.968Z,0.13
2023-01-18T21:31:19.635Z,0.21
2023-01-18T21:33:46.249Z,0.23
2023-01-18T21:36:14.197Z,0.18
2023-01-18T21:38:40.758Z,0.10
2023-01-18T21:41:26.075Z,0.05
2023-01-18T21:44:12.576Z,0.06
2023-01-18T21:46:44.189Z,0.12
2023-01-18T21:49:42.848Z,0.12
2023-01-18T21:52:35.914Z,0.04
2023-01-18T21:55:02.445Z,0.02
2023-01-18T21:57:29.001Z,0.05
2023-01-18T21:59:55.532Z,0.05
2023-01-18T22:02:22.643Z,0.08
2023-01-18T22:05:00.882Z,0.07
2023-01-18T22:07:28.076Z,0.08
2023-01-18T22:10:03.939Z,0.12
2023-01-18T22:12:33.436Z,0.13
2023-01-18T22:15:02.222Z,0.06
2023-01-18T22:17:29.019Z,0.08
2023-01-18T22:19:55.730Z,0.07
2023-01-18T22:22:22.288Z,0.07
2023-01-18T22:24:48.840Z,0.08
2023-01-18T22:27:15.369Z,0.08
2023-01-18T22:29:42.257Z,0.13
2023-01-18T22:32:08.850Z,0.21
2023-01-18T22:34:35.427Z,0.23
2023-01-18T22:37:03.353Z,0.12
2023-01-18T22:39:29.975Z,0.16
2023-01-18T22:41:56.556Z,0.13
2023-01-18T22:44:23.198Z,0.14
2023-01-18T22:46:49.791Z,0.17
2023-01-18T22:49:16.412Z,0.13
2023-01-18T22:51:43.041Z,0.11
2023-01-18T22:54:09.589Z,0.11
2023-01-18T22:56:36.125Z,0.13
2023-01-18T22:59:02.756Z,0.21
2023-01-18T23:01:30.959Z,0.21
2023-01-18T23:04:00.536Z,0.12
2023-01-18T23:06:28.236Z,0.10
2023-01-18T23:08:55.854Z,0.10
2023-01-18T23:11:23.990Z,0.12
2023-01-18T23:14:10.750Z,0.17
2023-01-18T23:16:56.228Z,0.10
2023-01-18T23:19:24.247Z,0.12
2023-01-18T23:21:52.048Z,0.18
2023-01-18T23:24:19.159Z,0.16
2023-01-18T23:26:45.819Z,0.16
2023-01-18T23:29:12.449Z,0.20
2023-01-18T23:31:39.034Z,0.19
2023-01-18T23:34:05.817Z,0.12
2023-01-18T23:36:32.436Z,0.22
2023-01-18T23:39:17.513Z,0.13
2023-01-18T23:42:02.395Z,0.23
2023-01-18T23:44:47.308Z,0.39
2023-01-18T23:47:32.272Z,0.40
2023-01-18T23:50:17.315Z,0.28
2023-01-18T23:53:02.510Z,0.21
2023-01-18T23:55:29.084Z,0.16
2023-01-18T23:57:55.675Z,0.15
